createdAt,value
2023-03-12T00:00:34.480Z,0.97
2023-03-12T00:03:02.156Z,0.87
2023-03-12T00:05:29.862Z,1.00
2023-03-12T00:07:59.785Z,0.90
2023-03-12T00:10:27.586Z,1.10
2023-03-12T00:12:55.292Z,0.87
2023-03-12T00:15:24.335Z,0.97
2023-03-12T00:17:52.120Z,0.90
2023-03-12T00:20:20.221Z,0.90
2023-03-12T00:22:47.874Z,0.90
2023-03-12T00:25:16.488Z,0.90
2023-03-12T00:27:44.376Z,1.00
2023-03-12T00:30:13.087Z,1.00
2023-03-12T00:32:42.138Z,1.00
2023-03-12T00:35:10.155Z,1.10
2023-03-12T00:37:37.918Z,1.00
2023-03-12T00:40:08.388Z,0.90
2023-03-12T00:42:36.103Z,1.00
2023-03-12T00:45:03.904Z,1.00
2023-03-12T00:47:31.577Z,0.90
2023-03-12T00:50:00.606Z,1.00
2023-03-12T00:52:28.275Z,0.90
2023-03-12T00:54:58.305Z,0.90
2023-03-12T00:57:26.209Z,0.90
2023-03-12T00:59:53.900Z,0.80
2023-03-12T01:02:21.578Z,1.10
2023-03-12T01:04:49.256Z,1.00
2023-03-12T01:07:18.268Z,0.90
2023-03-12T01:09:45.947Z,1.00
2023-03-12T01:12:13.626Z,0.90
2023-03-12T01:14:41.293Z,1.00
2023-03-12T01:17:08.957Z,1.07
2023-03-12T01:19:36.655Z,1.00
2023-03-12T01:22:04.370Z,0.90
2023-03-12T01:24:33.601Z,1.00
2023-03-12T01:27:01.260Z,0.90
2023-03-12T01:29:28.920Z,1.00
2023-03-12T01:31:56.600Z,1.00
2023-03-12T01:34:24.286Z,0.90
2023-03-12T01:36:51.947Z,0.87
2023-03-12T01:39:19.630Z,0.80
2023-03-12T01:41:48.651Z,0.90
2023-03-12T01:44:16.318Z,0.97
2023-03-12T01:46:44.199Z,1.10
2023-03-12T01:49:13.709Z,0.90
2023-03-12T01:51:42.327Z,0.90
2023-03-12T01:54:12.188Z,0.90
2023-03-12T01:56:39.891Z,0.93
2023-03-12T01:59:12.450Z,1.10
2023-03-12T02:01:40.136Z,0.90
2023-03-12T02:04:08.994Z,1.00
2023-03-12T02:06:38.821Z,0.90
2023-03-12T02:09:07.216Z,0.93
2023-03-12T02:11:34.936Z,0.80
2023-03-12T02:14:02.661Z,0.80
2023-03-12T02:16:31.772Z,1.10
2023-03-12T02:18:59.513Z,0.93
2023-03-12T02:21:29.468Z,0.90
2023-03-12T02:24:02.316Z,1.10
2023-03-12T02:26:31.522Z,1.00
2023-03-12T02:29:00.562Z,1.00
2023-03-12T02:31:33.239Z,1.00
2023-03-12T02:34:01.283Z,0.90
2023-03-12T02:36:28.983Z,1.00
2023-03-12T02:38:57.125Z,1.00
2023-03-12T02:41:25.935Z,0.80
2023-03-12T02:43:58.820Z,1.00
2023-03-12T02:46:26.672Z,0.90
2023-03-12T02:48:54.352Z,1.17
2023-03-12T02:51:22.005Z,0.90
2023-03-12T02:53:54.593Z,1.10
2023-03-12T02:56:23.205Z,1.10
2023-03-12T02:58:50.956Z,1.20
2023-03-12T03:01:20.499Z,0.80
2023-03-12T03:03:48.345Z,0.90
2023-03-12T03:06:16.123Z,0.90
2023-03-12T03:08:43.806Z,0.90
2023-03-12T03:11:11.604Z,1.07
2023-03-12T03:13:39.406Z,1.00
2023-03-12T03:16:07.742Z,1.00
2023-03-12T03:18:36.806Z,1.07
2023-03-12T03:21:05.879Z,1.00
2023-03-12T03:23:33.660Z,0.90
2023-03-12T03:26:01.457Z,0.90
2023-03-12T03:28:29.688Z,0.90
2023-03-12T03:31:01.287Z,1.00
2023-03-12T03:33:29.016Z,0.97
2023-03-12T03:35:59.476Z,0.97
2023-03-12T03:38:27.498Z,0.90
2023-03-12T03:40:55.320Z,0.80
2023-03-12T03:43:23.122Z,0.90
2023-03-12T03:45:51.248Z,1.20
2023-03-12T03:48:18.932Z,1.03
2023-03-12T03:50:46.609Z,0.90
2023-03-12T03:53:15.836Z,0.90
2023-03-12T03:55:43.504Z,0.90
2023-03-12T03:58:11.173Z,0.93
2023-03-12T04:00:38.900Z,0.87
2023-03-12T04:03:06.684Z,1.07
2023-03-12T04:05:34.443Z,0.90
2023-03-12T04:08:03.524Z,0.90
2023-03-12T04:10:32.599Z,0.80
2023-03-12T04:13:00.269Z,1.10
2023-03-12T04:15:28.066Z,0.90
2023-03-12T04:17:55.826Z,1.10
2023-03-12T04:20:23.543Z,0.90
2023-03-12T04:22:51.221Z,0.83
2023-03-12T04:25:19.022Z,1.00
2023-03-12T04:27:48.103Z,0.90
2023-03-12T04:30:16.035Z,0.90
2023-03-12T04:32:43.751Z,0.90
2023-03-12T04:35:11.835Z,1.03
2023-03-12T04:37:39.534Z,0.90
2023-03-12T04:40:09.719Z,1.00
2023-03-12T04:42:37.578Z,0.90
2023-03-12T04:45:07.798Z,0.90
2023-03-12T04:47:35.556Z,0.80
2023-03-12T04:50:03.266Z,1.17
2023-03-12T04:52:30.991Z,0.93
2023-03-12T04:54:59.400Z,1.00
2023-03-12T04:57:27.073Z,0.97
2023-03-12T04:59:54.863Z,1.10
2023-03-12T05:02:23.922Z,1.00
2023-03-12T05:04:51.577Z,0.90
2023-03-12T05:07:19.841Z,0.80
2023-03-12T05:09:47.544Z,1.00
2023-03-12T05:12:15.218Z,1.00
2023-03-12T05:14:42.943Z,1.00
2023-03-12T05:17:10.600Z,0.93
2023-03-12T05:19:39.648Z,1.00
2023-03-12T05:22:07.307Z,0.93
2023-03-12T05:24:35.021Z,1.07
2023-03-12T05:27:02.969Z,0.90
2023-03-12T05:29:35.297Z,1.03
2023-03-12T05:32:03.034Z,0.83
2023-03-12T05:34:31.318Z,1.00
2023-03-12T05:37:00.479Z,0.90
2023-03-12T05:39:28.164Z,0.90
2023-03-12T05:41:57.177Z,0.80
2023-03-12T05:44:24.998Z,0.90
2023-03-12T05:46:52.764Z,0.90
2023-03-12T05:49:20.507Z,1.00
2023-03-12T05:51:48.281Z,0.90
2023-03-12T05:54:18.982Z,1.10
2023-03-12T05:56:46.684Z,0.90
2023-03-12T05:59:14.341Z,0.90
2023-03-12T06:01:42.123Z,0.90
2023-03-12T06:04:09.791Z,0.93
2023-03-12T06:06:37.753Z,1.00
2023-03-12T06:09:05.638Z,0.90
2023-03-12T06:11:35.478Z,0.90
2023-03-12T06:14:03.183Z,0.90
2023-03-12T06:16:30.962Z,1.00
2023-03-12T06:19:00.326Z,0.90
2023-03-12T06:21:29.186Z,0.90
2023-03-12T06:23:57.350Z,0.80
2023-03-12T06:26:25.213Z,0.90
2023-03-12T06:28:54.254Z,0.90
2023-03-12T06:31:22.543Z,0.83
2023-03-12T06:33:50.238Z,0.90
2023-03-12T06:36:17.985Z,0.80
2023-03-12T06:38:45.676Z,0.90
2023-03-12T06:41:14.856Z,0.90
2023-03-12T06:43:42.652Z,0.83
2023-03-12T06:46:14.257Z,0.90
2023-03-12T06:48:42.132Z,0.90
2023-03-12T06:51:09.926Z,1.00
2023-03-12T06:53:38.830Z,1.00
2023-03-12T06:56:08.791Z,0.90
2023-03-12T06:58:36.455Z,1.00
2023-03-12T07:01:04.201Z,0.90
2023-03-12T07:03:33.259Z,0.90
2023-03-12T07:06:00.951Z,1.00
2023-03-12T07:08:30.884Z,0.90
2023-03-12T07:11:01.185Z,0.90
2023-03-12T07:13:29.298Z,1.00
2023-03-12T07:15:56.999Z,0.80
2023-03-12T07:18:24.740Z,0.80
2023-03-12T07:20:53.807Z,0.80
2023-03-12T07:23:21.520Z,0.80
2023-03-12T07:25:49.276Z,0.80
2023-03-12T07:28:17.170Z,1.07
2023-03-12T07:30:50.275Z,0.87
2023-03-12T07:33:18.791Z,0.80
2023-03-12T07:35:48.107Z,1.00
2023-03-12T07:38:18.340Z,1.00
2023-03-12T07:40:51.602Z,0.80
2023-03-12T07:43:21.553Z,0.90
2023-03-12T07:45:49.685Z,0.83
2023-03-12T07:48:19.677Z,0.97
2023-03-12T07:50:47.562Z,0.97
2023-03-12T07:53:15.289Z,0.83
2023-03-12T07:55:45.017Z,0.80
2023-03-12T07:58:13.847Z,0.90
2023-03-12T08:00:41.570Z,0.93
2023-03-12T08:03:09.367Z,0.80
2023-03-12T08:05:37.198Z,0.90
2023-03-12T08:08:04.898Z,0.80
2023-03-12T08:10:32.670Z,0.87
2023-03-12T08:13:01.801Z,0.90
2023-03-12T08:15:29.496Z,0.90
2023-03-12T08:17:57.155Z,0.90
2023-03-12T08:20:24.799Z,0.90
2023-03-12T08:22:52.488Z,0.90
2023-03-12T08:25:21.088Z,1.10
2023-03-12T08:27:48.777Z,0.90
2023-03-12T08:30:18.402Z,1.10
2023-03-12T08:32:46.095Z,1.00
2023-03-12T08:35:13.800Z,0.83
2023-03-12T08:37:42.165Z,0.90
2023-03-12T08:40:13.225Z,0.90
2023-03-12T08:42:41.092Z,0.90
2023-03-12T08:45:09.654Z,0.80
2023-03-12T08:47:41.452Z,0.90
2023-03-12T08:50:11.195Z,0.80
2023-03-12T08:52:38.943Z,0.90
2023-03-12T08:55:07.348Z,0.80
2023-03-12T08:57:35.029Z,0.80
2023-03-12T09:00:05.236Z,0.83
2023-03-12T09:02:32.893Z,0.90
2023-03-12T09:05:01.920Z,0.90
2023-03-12T09:07:29.633Z,1.00
2023-03-12T09:09:57.398Z,0.90
2023-03-12T09:12:25.205Z,0.97
2023-03-12T09:15:08.510Z,0.90
2023-03-12T09:17:36.259Z,0.80
2023-03-12T09:20:08.309Z,0.90
2023-03-12T09:22:37.124Z,0.80
2023-03-12T09:25:05.014Z,0.90
2023-03-12T09:27:37.119Z,0.97
2023-03-12T09:30:06.572Z,0.90
2023-03-12T09:32:34.335Z,0.80
2023-03-12T09:35:02.040Z,0.80
2023-03-12T09:37:32.244Z,0.80
2023-03-12T09:40:00.001Z,0.90
2023-03-12T09:42:30.842Z,0.80
2023-03-12T09:44:58.537Z,0.90
2023-03-12T09:47:28.001Z,0.90
2023-03-12T09:49:57.050Z,0.90
2023-03-12T09:52:26.451Z,0.90
2023-03-12T09:54:57.436Z,0.80
2023-03-12T09:57:25.879Z,0.80
2023-03-12T09:59:53.564Z,0.80
2023-03-12T10:02:51.054Z,0.90
2023-03-12T10:05:19.796Z,0.80
2023-03-12T10:07:48.888Z,0.90
2023-03-12T10:10:27.187Z,0.90
2023-03-12T10:13:06.122Z,0.80
2023-03-12T10:15:39.325Z,0.80
2023-03-12T10:18:12.831Z,1.00
2023-03-12T10:20:51.898Z,0.90
2023-03-12T10:23:28.603Z,0.80
2023-03-12T10:25:59.529Z,0.90
2023-03-12T10:28:30.585Z,0.90
2023-03-12T10:30:59.189Z,0.90
2023-03-12T10:33:31.634Z,0.80
2023-03-12T10:35:59.552Z,0.83
2023-03-12T10:38:28.884Z,0.90
2023-03-12T10:40:57.933Z,0.90
2023-03-12T10:43:25.589Z,0.90
2023-03-12T10:45:58.044Z,0.80
2023-03-12T10:48:26.453Z,0.83
2023-03-12T10:51:04.295Z,0.80
2023-03-12T10:53:32.519Z,0.90
2023-03-12T10:56:03.567Z,0.80
2023-03-12T10:58:36.527Z,0.90
2023-03-12T11:01:05.423Z,0.97
2023-03-12T11:03:33.861Z,0.87
2023-03-12T11:06:02.176Z,0.90
2023-03-12T11:08:30.651Z,0.80
2023-03-12T11:10:59.050Z,0.90
2023-03-12T11:13:32.536Z,0.90
2023-03-12T11:16:01.125Z,0.80
2023-03-12T11:18:33.489Z,0.80
2023-03-12T11:21:15.695Z,0.90
2023-03-12T11:23:44.128Z,0.80
2023-03-12T11:26:14.008Z,0.80
2023-03-12T11:28:44.916Z,0.87
2023-03-12T11:31:17.045Z,0.87
2023-03-12T11:33:44.748Z,0.90
2023-03-12T11:36:22.589Z,0.80
2023-03-12T11:38:52.373Z,0.83
2023-03-12T11:41:26.427Z,0.90
2023-03-12T11:44:01.924Z,0.90
2023-03-12T11:46:36.209Z,0.80
2023-03-12T11:49:10.413Z,0.87
2023-03-12T11:51:42.239Z,0.90
2023-03-12T11:54:45.849Z,0.90
2023-03-12T11:57:15.744Z,0.80
2023-03-12T11:59:50.700Z,0.90
2023-03-12T12:02:26.630Z,0.80
2023-03-12T12:05:13.641Z,0.80
2023-03-12T12:07:47.504Z,0.80
2023-03-12T12:10:24.054Z,0.90
2023-03-12T12:12:54.910Z,0.70
2023-03-12T12:15:28.979Z,0.83
2023-03-12T12:18:01.045Z,0.83
2023-03-12T12:20:34.517Z,0.90
2023-03-12T12:23:09.377Z,0.80
2023-03-12T12:26:06.570Z,0.80
2023-03-12T12:28:55.482Z,0.90
2023-03-12T12:31:32.193Z,0.90
2023-03-12T12:34:07.636Z,0.90
2023-03-12T12:36:36.550Z,0.80
2023-03-12T12:39:06.672Z,0.90
2023-03-12T12:41:35.625Z,0.90
2023-03-12T12:44:04.092Z,0.90
2023-03-12T12:46:34.680Z,1.00
2023-03-12T12:49:03.435Z,1.00
2023-03-12T12:51:32.338Z,0.83
2023-03-12T12:54:01.608Z,0.90
2023-03-12T12:56:31.007Z,0.93
2023-03-12T12:59:21.485Z,0.93
2023-03-12T13:01:50.552Z,1.00
2023-03-12T13:04:21.582Z,0.80
2023-03-12T13:06:56.772Z,0.80
2023-03-12T13:09:36.048Z,0.80
2023-03-12T13:12:19.758Z,0.90
2023-03-12T13:14:47.728Z,0.90
2023-03-12T13:17:28.266Z,0.90
2023-03-12T13:20:01.606Z,0.90
2023-03-12T13:22:50.908Z,0.80
2023-03-12T13:25:25.881Z,1.00
2023-03-12T13:27:58.777Z,1.00
2023-03-12T13:30:48.107Z,0.80
2023-03-12T13:33:18.236Z,0.80
2023-03-12T13:35:49.947Z,0.80
2023-03-12T13:38:19.469Z,0.80
2023-03-12T13:41:00.891Z,0.90
2023-03-12T13:43:51.246Z,0.80
2023-03-12T13:46:29.672Z,1.07
2023-03-12T13:49:01.124Z,0.80
2023-03-12T13:51:28.796Z,1.10
2023-03-12T13:53:57.961Z,0.90
2023-03-12T13:56:27.459Z,0.80
2023-03-12T13:58:56.955Z,0.87
2023-03-12T14:01:25.732Z,0.83
2023-03-12T14:03:54.354Z,0.83
2023-03-12T14:06:24.008Z,0.80
2023-03-12T14:09:07.710Z,0.90
2023-03-12T14:11:42.967Z,0.80
2023-03-12T14:14:41.295Z,1.00
2023-03-12T14:17:15.588Z,1.10
2023-03-12T14:19:46.964Z,0.93
2023-03-12T14:22:15.998Z,0.80
2023-03-12T14:24:49.258Z,0.70
2023-03-12T14:27:19.836Z,1.00
2023-03-12T14:29:49.238Z,0.90
2023-03-12T14:32:18.351Z,0.90
2023-03-12T14:34:46.918Z,0.80
2023-03-12T14:37:17.960Z,0.80
2023-03-12T14:39:47.220Z,0.80
2023-03-12T14:42:21.308Z,0.80
2023-03-12T14:44:54.998Z,1.00
2023-03-12T14:47:22.656Z,0.90
2023-03-12T14:49:50.322Z,0.87
2023-03-12T14:52:24.300Z,0.83
2023-03-12T14:54:55.977Z,0.80
2023-03-12T14:57:24.791Z,0.90
2023-03-12T14:59:56.064Z,0.90
2023-03-12T15:02:23.989Z,0.83
2023-03-12T15:04:55.128Z,0.90
2023-03-12T15:07:26.636Z,0.80
2023-03-12T15:09:54.324Z,0.87
2023-03-12T15:12:22.907Z,0.80
2023-03-12T15:14:51.540Z,0.90
2023-03-12T15:17:20.103Z,0.90
2023-03-12T15:19:47.844Z,0.80
2023-03-12T15:22:16.876Z,0.90
2023-03-12T15:24:46.052Z,1.00
2023-03-12T15:27:24.312Z,0.80
2023-03-12T15:29:52.086Z,1.00
2023-03-12T15:32:20.505Z,0.90
2023-03-12T15:34:48.411Z,0.90
2023-03-12T15:37:24.265Z,1.00
2023-03-12T15:39:53.550Z,0.80
2023-03-12T15:42:23.539Z,1.03
2023-03-12T15:44:53.965Z,1.00
2023-03-12T15:47:22.649Z,0.90
2023-03-12T15:49:52.853Z,0.90
2023-03-12T15:52:29.178Z,1.00
2023-03-12T15:55:03.035Z,0.90
2023-03-12T15:57:30.786Z,0.90
2023-03-12T16:00:18.087Z,0.90
2023-03-12T16:02:50.169Z,0.80
2023-03-12T16:05:17.937Z,0.80
2023-03-12T16:07:45.647Z,0.80
2023-03-12T16:10:15.944Z,0.90
2023-03-12T16:12:43.986Z,0.90
2023-03-12T16:15:14.892Z,0.97
2023-03-12T16:17:42.851Z,0.90
2023-03-12T16:20:13.421Z,0.80
2023-03-12T16:22:41.299Z,1.00
2023-03-12T16:25:11.977Z,0.80
2023-03-12T16:27:45.186Z,0.90
2023-03-12T16:30:15.452Z,0.90
2023-03-12T16:32:43.259Z,0.80
2023-03-12T16:35:14.461Z,0.80
2023-03-12T16:37:42.157Z,0.90
2023-03-12T16:40:11.820Z,0.90
2023-03-12T16:42:42.190Z,0.93
2023-03-12T16:45:11.199Z,0.83
2023-03-12T16:47:39.217Z,1.10
2023-03-12T16:50:14.919Z,0.90
2023-03-12T16:52:42.594Z,0.80
2023-03-12T16:55:10.744Z,0.80
2023-03-12T16:57:39.263Z,0.87
2023-03-12T17:00:13.006Z,0.80
2023-03-12T17:02:40.708Z,0.80
2023-03-12T17:05:08.918Z,0.83
2023-03-12T17:07:36.737Z,0.80
2023-03-12T17:10:04.508Z,1.10
2023-03-12T17:12:32.940Z,0.90
2023-03-12T17:15:00.732Z,0.80
2023-03-12T17:17:29.873Z,0.80
2023-03-12T17:20:00.358Z,1.10
2023-03-12T17:22:28.135Z,0.93
2023-03-12T17:24:55.793Z,0.87
2023-03-12T17:27:23.546Z,1.10
2023-03-12T17:29:51.239Z,0.80
2023-03-12T17:32:19.371Z,0.90
2023-03-12T17:34:48.416Z,0.90
2023-03-12T17:37:16.079Z,0.80
2023-03-12T17:39:43.776Z,1.00
2023-03-12T17:42:11.443Z,0.83
2023-03-12T17:44:39.414Z,0.90
2023-03-12T17:47:07.185Z,1.00
2023-03-12T17:49:34.896Z,0.90
2023-03-12T17:52:04.224Z,0.90
2023-03-12T17:54:31.897Z,1.00
2023-03-12T17:56:59.572Z,1.00
2023-03-12T17:59:27.267Z,1.00
2023-03-12T18:01:54.928Z,0.90
2023-03-12T18:04:22.642Z,1.10
2023-03-12T18:06:50.371Z,0.93
2023-03-12T18:09:19.408Z,1.00
2023-03-12T18:11:47.068Z,0.80
2023-03-12T18:14:14.733Z,0.80
2023-03-12T18:16:42.454Z,0.80
2023-03-12T18:19:10.110Z,1.10
2023-03-12T18:21:37.800Z,0.90
2023-03-12T18:24:14.071Z,0.90
2023-03-12T18:26:45.200Z,0.90
2023-03-12T18:29:13.031Z,0.93
2023-03-12T18:31:40.743Z,0.90
2023-03-12T18:34:08.427Z,1.00
2023-03-12T18:36:36.100Z,0.80
2023-03-12T18:39:06.133Z,1.00
2023-03-12T18:41:33.842Z,0.90
2023-03-12T18:44:02.867Z,0.90
2023-03-12T18:46:30.578Z,0.87
2023-03-12T18:48:58.304Z,1.03
2023-03-12T18:51:25.996Z,1.10
2023-03-12T18:53:53.660Z,1.13
2023-03-12T18:56:21.385Z,0.90
2023-03-12T18:58:49.064Z,0.80
2023-03-12T19:01:18.181Z,1.00
2023-03-12T19:03:45.971Z,1.30
2023-03-12T19:06:14.810Z,0.97
2023-03-12T19:08:42.586Z,0.80
2023-03-12T19:11:11.530Z,1.00
2023-03-12T19:13:39.300Z,0.90
2023-03-12T19:16:08.411Z,0.90
2023-03-12T19:18:37.736Z,1.10
2023-03-12T19:21:06.069Z,0.90
2023-03-12T19:23:33.839Z,1.17
2023-03-12T19:26:01.563Z,1.00
2023-03-12T19:28:29.399Z,1.10
2023-03-12T19:31:00.335Z,1.00
2023-03-12T19:33:28.755Z,1.00
2023-03-12T19:35:58.088Z,0.90
2023-03-12T19:38:25.995Z,1.20
2023-03-12T19:40:55.421Z,1.20
2023-03-12T19:43:23.376Z,1.20
2023-03-12T19:45:51.142Z,0.93
2023-03-12T19:48:18.876Z,0.90
2023-03-12T19:50:46.572Z,0.90
2023-03-12T19:53:17.430Z,1.20
2023-03-12T19:55:47.393Z,1.20
2023-03-12T19:58:15.388Z,1.40
2023-03-12T20:00:43.123Z,1.00
2023-03-12T20:03:10.962Z,1.30
2023-03-12T20:05:38.725Z,1.20
2023-03-12T20:08:06.851Z,1.00
2023-03-12T20:10:35.924Z,1.40
2023-03-12T20:13:03.604Z,1.40
2023-03-12T20:15:31.333Z,1.03
2023-03-12T20:17:59.031Z,1.20
2023-03-12T20:20:26.763Z,1.40
2023-03-12T20:22:54.591Z,1.70
2023-03-12T20:25:22.314Z,1.47
2023-03-12T20:27:51.728Z,1.67
2023-03-12T20:30:19.900Z,1.50
2023-03-12T20:32:47.761Z,2.03
2023-03-12T20:35:16.137Z,2.47
2023-03-12T20:37:43.871Z,1.83
2023-03-12T20:40:12.864Z,2.13
2023-03-12T20:42:41.568Z,2.00
2023-03-12T20:45:11.727Z,1.80
2023-03-12T20:47:40.357Z,2.13
2023-03-12T20:50:08.585Z,2.20
2023-03-12T20:52:36.280Z,1.87
2023-03-12T20:55:04.114Z,2.40
2023-03-12T20:57:31.836Z,1.80
2023-03-12T21:00:00.023Z,2.30
2023-03-12T21:02:29.161Z,2.00
2023-03-12T21:04:56.933Z,2.20
2023-03-12T21:07:24.642Z,2.47
2023-03-12T21:09:52.343Z,2.10
2023-03-12T21:12:20.053Z,2.20
2023-03-12T21:14:47.764Z,2.10
2023-03-12T21:17:15.462Z,2.67
2023-03-12T21:19:44.547Z,1.70
2023-03-12T21:22:12.257Z,2.57
2023-03-12T21:24:40.224Z,1.77
2023-03-12T21:27:11.171Z,1.73
2023-03-12T21:29:38.901Z,2.40
2023-03-12T21:32:06.854Z,1.87
2023-03-12T21:34:34.862Z,2.40
2023-03-12T21:37:03.978Z,2.10
2023-03-12T21:39:31.699Z,2.03
2023-03-12T21:41:59.568Z,1.60
2023-03-12T21:44:27.483Z,2.10
2023-03-12T21:46:55.249Z,2.37
2023-03-12T21:49:22.997Z,1.93
2023-03-12T21:51:50.807Z,1.93
2023-03-12T21:54:19.937Z,1.67
2023-03-12T21:56:47.624Z,1.87
2023-03-12T21:59:15.294Z,2.43
2023-03-12T22:01:42.997Z,1.87
2023-03-12T22:04:10.730Z,1.80
2023-03-12T22:06:38.432Z,1.97
2023-03-12T22:09:06.131Z,1.93
2023-03-12T22:11:35.248Z,1.97
2023-03-12T22:14:02.926Z,2.30
2023-03-12T22:16:30.659Z,2.00
2023-03-12T22:18:58.407Z,1.73
2023-03-12T22:21:26.112Z,1.90
2023-03-12T22:23:54.651Z,1.73
2023-03-12T22:26:22.889Z,1.90
2023-03-12T22:28:52.404Z,2.23
2023-03-12T22:31:20.405Z,2.30
2023-03-12T22:33:48.175Z,1.90
2023-03-12T22:36:16.322Z,1.90
2023-03-12T22:38:44.096Z,2.50
2023-03-12T22:41:13.732Z,2.20
2023-03-12T22:43:41.442Z,2.20
2023-03-12T22:46:10.581Z,2.10
2023-03-12T22:48:38.290Z,2.03
2023-03-12T22:51:06.537Z,2.20
2023-03-12T22:53:34.277Z,1.87
2023-03-12T22:56:02.846Z,2.07
2023-03-12T22:58:30.655Z,2.13
2023-03-12T23:01:01.727Z,2.93
2023-03-12T23:03:31.379Z,2.10
2023-03-12T23:05:59.169Z,2.37
2023-03-12T23:08:27.191Z,2.13
2023-03-12T23:10:55.359Z,2.10
2023-03-12T23:13:23.096Z,2.10
2023-03-12T23:15:50.777Z,1.90
2023-03-12T23:18:18.608Z,1.40
2023-03-12T23:20:47.747Z,1.73
2023-03-12T23:23:16.566Z,1.90
2023-03-12T23:25:44.312Z,2.23
2023-03-12T23:28:11.991Z,1.80
2023-03-12T23:30:39.719Z,2.60
2023-03-12T23:33:07.397Z,2.17
2023-03-12T23:35:35.180Z,2.13
2023-03-12T23:38:06.085Z,2.17
2023-03-12T23:40:33.813Z,2.10
2023-03-12T23:43:01.513Z,2.37
2023-03-12T23:45:29.225Z,2.47
2023-03-12T23:47:56.928Z,2.50
2023-03-12T23:50:24.602Z,2.77
2023-03-12T23:52:52.727Z,2.90
2023-03-12T23:55:21.776Z,2.07
2023-03-12T23:57:49.459Z,2.43
